Time;durP1;ratioP1;P1;durP2;ratioP2;P2;SDS_P1;SDS_P2;PMS_P1;PMS_P2;Temp;Humidity;BMP_temperature;BMP_pressure;BME280_temperature;BME280_humidity;BME280_pressure;Samples;Min_cycle;Max_cycle;Signal;HPM_P1;HPM_P2
2021/10/09 00:00:46;;;;;;;16.20;10.87;;;8.80;99.90;;;;;;4946504;29;20449;-90
2021/10/09 00:04:05;;;;;;;17.50;10.77;;;8.70;99.90;;;;;;4948188;29;20474;-90
2021/10/09 00:06:40;;;;;;;15.53;11.17;;;8.70;99.90;;;;;;4956762;29;20458;-90
2021/10/09 00:09:09;;;;;;;20.40;10.60;;;;;;;;;;4950041;29;21020;-88
2021/10/09 00:11:37;;;;;;;21.03;11.20;;;8.80;99.90;;;;;;4941996;29;20459;-88
2021/10/09 00:14:04;;;;;;;20.70;11.43;;;8.70;99.90;;;;;;4941773;29;20532;-89
2021/10/09 00:16:31;;;;;;;17.83;11.13;;;8.80;99.90;;;;;;4941869;29;20455;-88
2021/10/09 00:18:58;;;;;;;21.47;11.57;;;8.80;99.90;;;;;;4947774;29;20411;-88
2021/10/09 00:21:24;;;;;;;16.63;10.80;;;8.80;99.90;;;;;;4956415;29;20428;-88
2021/10/09 00:23:52;;;;;;;18.13;12.27;;;8.70;99.90;;;;;;4961712;29;20543;-88
2021/10/09 00:26:19;;;;;;;19.43;12.00;;;8.40;99.90;;;;;;4962592;28;20472;-87
2021/10/09 00:28:46;;;;;;;19.27;10.37;;;8.70;99.90;;;;;;4962717;29;20414;-88
2021/10/09 00:31:13;;;;;;;26.00;12.07;;;8.70;99.90;;;;;;4960269;29;20438;-88
2021/10/09 00:33:39;;;;;;;23.52;12.35;;;8.70;99.90;;;;;;4959745;28;20535;-88
2021/10/09 00:36:08;;;;;;;16.93;11.27;;;8.70;99.90;;;;;;4944726;29;20203;-88
2021/10/09 00:38:35;;;;;;;17.10;12.03;;;8.70;99.90;;;;;;4942364;29;20463;-89
2021/10/09 00:41:03;;;;;;;18.02;11.10;;;8.60;99.90;;;;;;4945881;29;20430;-89
2021/10/09 00:43:30;;;;;;;24.27;11.97;;;8.60;99.90;;;;;;4941127;29;20232;-88
2021/10/09 00:45:57;;;;;;;18.57;12.00;;;8.60;99.90;;;;;;4940930;29;20456;-89
2021/10/09 00:48:25;;;;;;;18.97;11.60;;;8.50;99.90;;;;;;4957976;29;20425;-89
2021/10/09 00:50:52;;;;;;;15.33;11.33;;;8.50;99.90;;;;;;4960221;29;20483;-87
2021/10/09 00:53:21;;;;;;;23.93;12.17;;;8.40;99.90;;;;;;4947683;29;20530;-88
2021/10/09 00:55:49;;;;;;;22.95;12.00;;;8.30;99.90;;;;;;4941609;29;20460;-88
2021/10/09 00:58:17;;;;;;;16.60;11.17;;;8.20;99.90;;;;;;4947227;28;20200;-86
2021/10/09 01:00:44;;;;;;;18.38;11.27;;;8.30;99.90;;;;;;4962303;28;20410;-86
2021/10/09 01:03:11;;;;;;;16.53;11.00;;;8.20;99.90;;;;;;4962382;28;20214;-85
2021/10/09 01:05:39;;;;;;;26.85;11.27;;;8.20;99.90;;;;;;4962516;28;20398;-87
2021/10/09 01:08:05;;;;;;;17.48;11.40;;;8.20;99.90;;;;;;4962422;28;20192;-86
2021/10/09 01:10:33;;;;;;;22.23;12.30;;;8.20;99.90;;;;;;4962194;28;20243;-87
2021/10/09 01:13:03;;;;;;;16.40;11.23;;;8.20;99.90;;;;;;4961503;28;20448;-87
2021/10/09 01:15:33;;;;;;;20.83;12.88;;;8.20;99.90;;;;;;4961178;28;20428;-88
2021/10/09 01:18:07;;;;;;;18.02;11.57;;;8.20;99.90;;;;;;4952636;29;20207;-89
2021/10/09 01:20:48;;;;;;;19.87;11.67;;;8.20;99.90;;;;;;4944589;29;20187;-89
2021/10/09 01:23:15;;;;;;;19.50;11.25;;;8.20;99.90;;;;;;4944541;29;20526;-89
2021/10/09 01:25:42;;;;;;;15.00;10.98;;;8.20;99.90;;;;;;4941330;29;20230;-88
2021/10/09 01:28:09;;;;;;;19.65;11.73;;;8.20;99.90;;;;;;4950371;29;20192;-87
2021/10/09 01:30:36;;;;;;;15.60;10.27;;;8.20;99.90;;;;;;4959140;29;20227;-87
2021/10/09 01:33:04;;;;;;;23.75;13.05;;;8.20;99.90;;;;;;4961619;28;20224;-85
2021/10/09 01:35:31;;;;;;;21.13;11.75;;;8.20;99.90;;;;;;4961026;28;20199;-88
2021/10/09 01:37:59;;;;;;;24.33;14.40;;;8.20;99.90;;;;;;4953749;28;20207;-88
2021/10/09 01:40:26;;;;;;;20.00;12.20;;;8.40;99.90;;;;;;4941445;29;20215;-88
2021/10/09 01:42:52;;;;;;;15.90;12.00;;;7.90;99.90;;;;;;4939997;29;20522;-87
2021/10/09 01:45:19;;;;;;;19.43;11.90;;;8.10;99.90;;;;;;4940594;29;20327;-88
2021/10/09 01:47:45;;;;;;;20.20;12.75;;;8.00;99.90;;;;;;4939704;29;20444;-90
2021/10/09 01:50:13;;;;;;;16.52;11.50;;;8.10;99.90;;;;;;4939986;29;20258;-86
2021/10/09 01:52:40;;;;;;;19.20;11.40;;;8.10;99.90;;;;;;4940370;29;20212;-88
2021/10/09 01:55:09;;;;;;;19.60;12.60;;;8.10;99.90;;;;;;4940168;29;20422;-88
2021/10/09 01:57:36;;;;;;;13.98;10.10;;;8.10;99.90;;;;;;4948068;29;20218;-88
2021/10/09 02:00:04;;;;;;;20.23;11.80;;;8.10;99.90;;;;;;4959402;28;20219;-87
2021/10/09 02:02:30;;;;;;;16.80;10.60;;;7.90;99.90;;;;;;4960411;28;20219;-86
2021/10/09 02:04:57;;;;;;;24.13;12.27;;;8.00;99.90;;;;;;4961280;28;20452;-85
2021/10/09 02:07:25;;;;;;;18.83;11.82;;;8.00;99.90;;;;;;4958728;28;20198;-89
2021/10/09 02:09:52;;;;;;;17.42;11.63;;;7.90;99.90;;;;;;4958073;29;20241;-89
2021/10/09 02:12:20;;;;;;;15.85;11.45;;;8.00;99.90;;;;;;4956834;29;20204;-90
2021/10/09 02:14:50;;;;;;;23.67;12.82;;;8.00;99.90;;;;;;4959681;29;20251;-89
2021/10/09 02:25:59;;;;;;;19.35;12.50;;;7.80;99.90;;;;;;4945724;28;20212;-87
2021/10/09 02:28:27;;;;;;;18.20;12.43;;;7.80;99.90;;;;;;4957162;28;20199;-88
2021/10/09 02:30:54;;;;;;;19.73;11.57;;;7.80;99.90;;;;;;4939665;29;20223;-88
2021/10/09 02:33:22;;;;;;;21.90;11.18;;;7.40;99.90;;;;;;4938459;29;20319;-89
2021/10/09 02:35:49;;;;;;;22.33;12.70;;;7.80;99.90;;;;;;4938807;29;20238;-90
2021/10/09 02:38:16;;;;;;;22.23;11.75;;;7.70;99.90;;;;;;4939347;29;20875;-90
2021/10/09 02:40:44;;;;;;;22.58;12.32;;;7.70;99.90;;;;;;4938251;29;20203;-90
2021/10/09 02:43:11;;;;;;;20.92;13.27;;;7.70;99.90;;;;;;4937979;29;20228;-90
2021/10/09 02:45:40;;;;;;;27.20;12.45;;;7.80;99.90;;;;;;4938134;29;20782;-90
2021/10/09 02:48:08;;;;;;;17.35;11.63;;;7.70;99.90;;;;;;4938727;29;20263;-90
2021/10/09 02:50:35;;;;;;;17.00;11.73;;;7.60;99.90;;;;;;4938538;29;20226;-90
2021/10/09 02:53:02;;;;;;;20.10;13.75;;;7.60;99.90;;;;;;4938594;29;20235;-90
2021/10/09 02:55:28;;;;;;;21.27;12.32;;;7.40;99.90;;;;;;4938518;29;20207;-90
2021/10/09 02:57:55;;;;;;;23.60;11.65;;;7.50;99.90;;;;;;4939359;29;20203;-90
2021/10/09 03:00:23;;;;;;;16.48;11.75;;;7.40;99.90;;;;;;4952416;28;20211;-89
2021/10/09 03:02:51;;;;;;;18.95;12.43;;;7.30;99.90;;;;;;4960480;28;20196;-89
2021/10/09 03:05:18;;;;;;;21.00;12.18;;;7.90;99.90;;;;;;4960356;28;20195;-88
2021/10/09 03:07:45;;;;;;;22.27;12.55;;;;;;;;;;4959515;28;20231;-89
2021/10/09 03:10:12;;;;;;;21.38;12.60;;;7.40;99.90;;;;;;4959236;29;20219;-90
2021/10/09 03:12:40;;;;;;;22.60;11.65;;;7.50;99.90;;;;;;4959819;29;20208;-89
2021/10/09 03:15:09;;;;;;;17.58;12.52;;;7.40;99.90;;;;;;4956143;29;20271;-90
2021/10/09 03:17:37;;;;;;;20.97;11.80;;;7.30;99.90;;;;;;4953166;29;20255;-89
2021/10/09 03:20:06;;;;;;;19.67;11.40;;;7.30;99.90;;;;;;4954649;29;20447;-89
2021/10/09 03:22:33;;;;;;;18.42;11.48;;;7.40;99.90;;;;;;4948991;29;20750;-90
2021/10/09 03:36:26;;;;;;;19.73;14.05;;;7.20;99.90;;;;;;4765003;30;20271;-90
2021/10/09 03:43:20;;;;;;;21.85;10.73;;;7.10;99.90;;;;;;4775021;30;20222;-89
2021/10/09 07:09:38;;;;;;;18.63;11.57;;;6.60;99.90;;;;;;3728534;26;20274;-91
2021/10/09 07:12:29;;;;;;;19.45;12.27;;;7.10;99.90;;;;;;4951376;29;20237;-92
2021/10/09 07:17:55;;;;;;;15.48;12.00;;;7.90;99.90;;;;;;4982813;28;20206;-86
2021/10/09 07:20:22;;;;;;;22.67;12.52;;;6.80;99.90;;;;;;4973287;28;20199;-89
2021/10/09 07:22:49;;;;;;;16.55;11.82;;;7.10;99.90;;;;;;4964697;28;20266;-88
2021/10/09 07:25:17;;;;;;;18.50;12.57;;;7.20;99.90;;;;;;4962792;29;20199;-88
2021/10/09 07:27:45;;;;;;;14.73;11.30;;;7.30;99.90;;;;;;4944101;29;20234;-89
2021/10/09 07:30:13;;;;;;;22.33;12.73;;;7.30;99.90;;;;;;4943784;29;20435;-88
2021/10/09 07:32:40;;;;;;;20.30;12.00;;;7.70;99.90;;;;;;4957519;28;20300;-86
2021/10/09 07:35:07;;;;;;;17.50;11.85;;;7.50;99.90;;;;;;4956663;28;20571;-88
2021/10/09 07:37:34;;;;;;;19.60;13.98;;;7.40;99.90;;;;;;4943905;29;20232;-88
2021/10/09 07:40:00;;;;;;;21.00;13.43;;;7.60;99.90;;;;;;4943140;29;20667;-88
2021/10/09 07:42:28;;;;;;;22.48;12.95;;;7.70;99.90;;;;;;4942571;29;20204;-88
2021/10/09 07:44:55;;;;;;;25.52;13.68;;;7.80;99.90;;;;;;4942361;29;20746;-88
2021/10/09 07:47:22;;;;;;;16.67;12.60;;;7.90;99.90;;;;;;4942437;29;20224;-88
2021/10/09 07:49:49;;;;;;;18.80;10.98;;;8.00;99.90;;;;;;4945654;29;20254;-89
2021/10/09 07:52:16;;;;;;;16.33;11.80;;;8.10;99.90;;;;;;4942151;29;20274;-88
2021/10/09 07:54:43;;;;;;;18.27;11.27;;;8.00;99.90;;;;;;4942853;29;20208;-88
2021/10/09 07:57:12;;;;;;;20.30;13.50;;;8.10;99.90;;;;;;4945836;29;20245;-89
2021/10/09 07:59:40;;;;;;;19.92;13.40;;;8.10;99.90;;;;;;4944781;29;20211;-88
2021/10/09 08:02:07;;;;;;;19.90;12.50;;;8.30;99.90;;;;;;4942587;29;20255;-88
2021/10/09 08:04:33;;;;;;;22.03;14.07;;;8.30;99.90;;;;;;4941840;29;20623;-88
2021/10/09 08:07:00;;;;;;;17.83;12.05;;;8.20;99.90;;;;;;4946427;29;20823;-89
2021/10/09 08:09:31;;;;;;;17.25;11.93;;;8.30;99.90;;;;;;4960145;29;20240;-90
2021/10/09 08:11:58;;;;;;;13.60;11.23;;;8.30;99.90;;;;;;4958259;29;20212;-88
2021/10/09 08:14:25;;;;;;;18.23;11.80;;;8.50;99.90;;;;;;4950985;29;20203;-87
2021/10/09 08:16:53;;;;;;;17.60;11.90;;;8.50;99.90;;;;;;4958115;29;20446;-87
2021/10/09 08:19:19;;;;;;;16.20;12.73;;;8.70;99.90;;;;;;4958845;29;20454;-87
2021/10/09 08:21:46;;;;;;;16.60;10.60;;;8.90;99.90;;;;;;4960484;29;20471;-87
2021/10/09 08:24:27;;;;;;;14.63;9.90;;;9.10;99.90;;;;;;4953505;29;20454;-87
2021/10/09 08:35:32;;;;;;;15.97;10.43;;;9.50;99.90;;;;;;4927539;29;20426;-86
2021/10/09 08:40:43;;;;;;;15.40;9.90;;;9.70;99.90;;;;;;4945497;29;20440;-87
2021/10/09 08:43:10;;;;;;;11.70;8.90;;;9.80;99.90;;;;;;4954952;29;20443;-88
2021/10/09 08:45:37;;;;;;;18.80;9.63;;;9.10;99.90;;;;;;4954692;29;20451;-87
2021/10/09 08:48:06;;;;;;;15.20;8.80;;;10.00;99.90;;;;;;4947834;29;20426;-87
2021/10/09 08:50:33;;;;;;;10.27;7.90;;;10.10;99.90;;;;;;4957041;28;20483;-83
2021/10/09 08:53:03;;;;;;;16.83;8.53;;;10.30;99.90;;;;;;4961318;28;20491;-85
2021/10/09 08:55:30;;;;;;;12.13;8.27;;;10.20;99.90;;;;;;4962556;28;20436;-84
2021/10/09 08:58:02;;;;;;;13.93;7.90;;;10.30;99.90;;;;;;4962414;28;20432;-84
2021/10/09 09:04:07;;;;;;;15.00;8.70;;;10.60;99.90;;;;;;4934794;29;20515;-87
2021/10/09 09:06:56;;;;;;;11.90;7.43;;;10.70;99.90;;;;;;4947703;29;20506;-87
2021/10/09 09:25:17;;;;;;;10.90;8.50;;;10.80;99.90;;;;;;4942491;29;20450;-87
2021/10/09 09:26:36;;;;;;;14.07;8.67;;;11.20;99.90;;;;;;4956036;29;20475;-86
2021/10/09 09:32:13;;;;;;;16.27;7.57;;;11.30;99.90;;;;;;4955678;29;20463;-87
2021/10/09 09:35:00;;;;;;;12.97;7.23;;;11.30;99.90;;;;;;4958763;28;20507;-85
2021/10/09 09:40:13;;;;;;;8.10;6.50;;;11.60;99.90;;;;;;4953677;29;20530;-87
2021/10/09 09:42:44;;;;;;;10.10;7.03;;;11.60;99.90;;;;;;4948779;29;20414;-88
2021/10/09 09:45:13;;;;;;;12.03;6.70;;;11.70;99.90;;;;;;4946442;29;20443;-87
2021/10/09 09:47:41;;;;;;;6.57;5.57;;;11.70;99.90;;;;;;4945138;29;20558;-88
2021/10/09 09:50:10;;;;;;;7.03;6.10;;;11.70;99.90;;;;;;4943718;29;20507;-88
2021/10/09 09:52:40;;;;;;;10.00;6.23;;;11.80;99.90;;;;;;4949755;29;20462;-87
2021/10/09 09:55:09;;;;;;;9.33;7.10;;;11.80;99.90;;;;;;4958822;28;20476;-86
2021/10/09 09:57:36;;;;;;;9.00;5.90;;;11.90;99.90;;;;;;4944932;29;20523;-88
2021/10/09 10:00:06;;;;;;;8.47;6.87;;;11.90;99.90;;;;;;4942676;29;20802;-87
2021/10/09 10:02:38;;;;;;;11.77;7.03;;;11.90;99.90;;;;;;4946335;29;20476;-88
2021/10/09 10:05:06;;;;;;;7.27;6.57;;;12.00;99.90;;;;;;4956309;29;20448;-88
2021/10/09 10:07:35;;;;;;;11.97;6.87;;;12.00;99.90;;;;;;4959783;28;20475;-86
2021/10/09 10:10:03;;;;;;;13.13;8.20;;;12.00;99.90;;;;;;4960073;28;20452;-87
2021/10/09 10:12:31;;;;;;;12.50;7.40;;;12.00;99.90;;;;;;4948720;29;20491;-87
2021/10/09 10:14:58;;;;;;;8.50;6.60;;;12.10;99.90;;;;;;4943566;29;20452;-87
2021/10/09 10:17:40;;;;;;;12.70;8.50;;;12.10;99.90;;;;;;4942446;29;20538;-87
2021/10/09 10:20:09;;;;;;;11.07;6.73;;;12.20;99.90;;;;;;4944607;29;20455;-88
2021/10/09 10:23:00;;;;;;;11.40;10.23;;;12.20;99.90;;;;;;4956266;29;20448;-82
2021/10/09 10:25:50;;;;;;;15.20;12.07;;;12.20;99.90;;;;;;4955983;29;20463;-82
2021/10/09 10:28:26;;;;;;;13.77;11.10;;;12.30;99.90;;;;;;4952054;29;20447;-83
2021/10/09 10:31:04;;;;;;;16.37;11.30;;;12.40;99.90;;;;;;4960083;28;20521;-83
2021/10/09 10:33:37;;;;;;;26.00;17.90;;;12.30;99.90;;;;;;4960734;28;20523;-80
2021/10/09 10:36:06;;;;;;;16.57;10.90;;;12.40;99.90;;;;;;4960622;28;20456;-82
2021/10/09 10:38:55;;;;;;;15.43;10.53;;;12.30;99.90;;;;;;4960695;28;20540;-80
2021/10/09 10:41:48;;;;;;;13.10;8.93;;;12.40;99.90;;;;;;4960380;28;20494;-85
2021/10/09 10:44:51;;;;;;;12.60;8.00;;;12.30;99.90;;;;;;4960275;28;20444;-82
2021/10/09 10:47:46;;;;;;;9.47;6.50;;;12.60;99.90;;;;;;4958465;29;20487;-84
2021/10/09 10:50:56;;;;;;;8.00;7.17;;;12.60;99.90;;;;;;4951139;29;20432;-84
2021/10/09 10:54:35;;;;;;;10.50;9.03;;;12.70;99.90;;;;;;4943123;29;20512;-84
2021/10/09 10:57:21;;;;;;;7.10;6.17;;;12.70;99.90;;;;;;4944245;29;20506;-86
2021/10/09 10:59:55;;;;;;;10.70;6.90;;;12.90;99.90;;;;;;4946741;29;20451;-84
2021/10/09 11:02:27;;;;;;;7.47;6.30;;;13.00;99.90;;;;;;4947768;29;20475;-84
2021/10/09 11:04:57;;;;;;;6.87;6.17;;;12.90;99.90;;;;;;4950709;29;20458;-86
2021/10/09 11:07:34;;;;;;;10.10;7.10;;;13.10;99.90;;;;;;4945649;29;20539;-84
2021/10/09 11:10:08;;;;;;;8.87;5.73;;;13.20;99.90;;;;;;4944821;29;20468;-85
2021/10/09 11:12:39;;;;;;;7.37;5.63;;;13.20;99.90;;;;;;4943512;29;21045;-85
2021/10/09 11:15:17;;;;;;;13.10;6.00;;;13.30;99.90;;;;;;4943669;29;20487;-84
2021/10/09 11:31:01;;;;;;;9.83;6.20;;;13.60;99.90;;;;;;4858951;29;20445;-83
2021/10/09 11:33:28;;;;;;;10.60;5.50;;;13.70;99.90;;;;;;4918618;29;20509;-83
2021/10/09 11:35:56;;;;;;;8.17;5.67;;;13.50;99.90;;;;;;4927538;29;20470;-84
2021/10/09 11:38:25;;;;;;;7.60;5.90;;;13.70;99.90;;;;;;4955734;29;20454;-85
2021/10/09 11:40:54;;;;;;;4.80;4.30;;;13.60;99.90;;;;;;4956399;29;20447;-86
2021/10/09 11:43:38;;;;;;;7.27;5.53;;;13.80;99.90;;;;;;4956018;29;20911;-86
2021/10/09 11:46:10;;;;;;;6.90;4.70;;;;;;;;;;4951590;29;20490;-87
2021/10/09 11:54:47;;;;;;;6.07;5.23;;;13.80;99.90;;;;;;4949067;29;20455;-88
2021/10/09 11:57:14;;;;;;;5.70;5.07;;;;;;;;;;4944625;29;20870;-87
2021/10/09 11:59:42;;;;;;;7.77;4.90;;;13.90;99.90;;;;;;4947334;29;20456;-88
2021/10/09 12:02:11;;;;;;;7.47;6.60;;;13.90;99.90;;;;;;4950978;29;20515;-86
2021/10/09 12:04:37;;;;;;;5.60;5.00;;;14.00;99.90;;;;;;4958450;28;20459;-86
2021/10/09 12:07:08;;;;;;;6.53;4.63;;;14.10;99.90;;;;;;4963047;28;20511;-86
2021/10/09 12:09:38;;;;;;;6.17;4.70;;;14.10;99.90;;;;;;4962807;28;20428;-84
2021/10/09 12:12:13;;;;;;;5.00;4.50;;;14.10;99.90;;;;;;4962797;28;20455;-88
2021/10/09 12:14:41;;;;;;;5.50;4.47;;;14.10;99.90;;;;;;4961890;29;20479;-88
2021/10/09 12:17:09;;;;;;;5.13;4.63;;;14.10;99.90;;;;;;4958274;29;20471;-88
2021/10/09 12:19:36;;;;;;;6.90;4.90;;;14.10;99.90;;;;;;4955618;29;20455;-86
2021/10/09 12:22:06;;;;;;;4.67;4.20;;;14.20;99.90;;;;;;4947683;29;20494;-87
2021/10/09 12:24:35;;;;;;;5.33;4.67;;;14.20;99.90;;;;;;4944452;29;20969;-86
2021/10/09 12:27:04;;;;;;;7.40;4.90;;;14.30;99.90;;;;;;4948144;28;20446;-85
2021/10/09 12:29:31;;;;;;;5.37;4.67;;;14.20;99.90;;;;;;4959950;28;20444;-86
2021/10/09 12:35:10;;;;;;;7.70;4.07;;;14.30;99.90;;;;;;5115277;28;20530;-84
2021/10/09 12:37:38;;;;;;;5.03;4.03;;;14.40;99.90;;;;;;5114983;28;20493;-85
2021/10/09 12:40:14;;;;;;;5.07;4.40;;;14.40;99.90;;;;;;5114014;28;20445;-83
2021/10/09 12:42:46;;;;;;;7.40;5.23;;;14.40;99.90;;;;;;5114417;28;20425;-84
2021/10/09 12:45:13;;;;;;;5.20;4.00;;;14.30;99.90;;;;;;5113952;28;20451;-83
2021/10/09 12:47:39;;;;;;;5.07;4.50;;;14.30;99.90;;;;;;5112073;28;20464;-82
2021/10/09 12:50:08;;;;;;;5.10;4.17;;;14.30;99.90;;;;;;5113438;28;20449;-83
2021/10/09 12:52:34;;;;;;;5.97;5.37;;;14.20;99.90;;;;;;5111507;28;20425;-85
2021/10/09 12:55:03;;;;;;;8.40;4.97;;;14.30;99.90;;;;;;5103913;28;20436;-85
2021/10/09 12:57:29;;;;;;;5.63;5.00;;;14.30;99.90;;;;;;5100749;28;20464;-85
2021/10/09 12:59:56;;;;;;;6.13;4.73;;;14.30;99.90;;;;;;5100804;28;20436;-83
2021/10/09 13:02:22;;;;;;;9.13;4.30;;;14.30;99.90;;;;;;5097757;28;20514;-84
2021/10/09 13:04:49;;;;;;;6.67;4.40;;;14.30;99.90;;;;;;5097225;28;21011;-85
2021/10/09 13:07:18;;;;;;;7.43;4.23;;;14.40;99.90;;;;;;5096669;28;21017;-84
2021/10/09 13:09:45;;;;;;;9.00;6.13;;;14.40;99.90;;;;;;5096899;28;20448;-84
2021/10/09 13:12:14;;;;;;;7.83;4.37;;;14.40;99.90;;;;;;5096486;28;20443;-83
2021/10/09 13:14:40;;;;;;;6.77;4.47;;;14.40;99.90;;;;;;5097388;28;20554;-83
2021/10/09 13:17:07;;;;;;;4.60;4.20;;;14.40;99.90;;;;;;5097319;28;20475;-84
2021/10/09 13:19:34;;;;;;;9.20;6.97;;;15.50;99.90;;;;;;5083323;22;20502;-89
2021/10/09 13:22:00;;;;;;;5.30;4.63;;;14.40;99.90;;;;;;5057346;28;20446;-90
2021/10/09 13:24:31;;;;;;;6.40;4.07;;;14.40;99.90;;;;;;5055358;28;20446;-89
2021/10/09 13:27:05;;;;;;;4.73;4.00;;;13.40;99.90;;;;;;5057892;28;20442;-89
2021/10/09 13:29:33;;;;;;;4.83;4.33;;;;;;;;;;5059031;28;20501;-89
2021/10/09 13:32:03;;;;;;;5.40;4.43;;;14.20;99.90;;;;;;5057103;28;20503;-89
2021/10/09 13:34:33;;;;;;;5.00;3.93;;;14.60;99.90;;;;;;5057289;28;20466;-90
2021/10/09 13:37:00;;;;;;;6.47;5.10;;;14.40;99.90;;;;;;5069110;28;20505;-89
2021/10/09 13:39:27;;;;;;;6.40;4.50;;;;;;;;;;5071728;28;20478;-89
2021/10/09 13:41:55;;;;;;;4.70;3.70;;;14.40;99.90;;;;;;5062074;28;20537;-88
2021/10/09 13:44:22;;;;;;;6.07;4.23;;;;;;;;;;5055343;28;20458;-89
2021/10/09 13:46:49;;;;;;;5.10;4.40;;;;;;;;;;5041620;28;20454;-89
2021/10/09 13:49:21;;;;;;;4.10;3.70;;;14.40;99.90;;;;;;5043612;28;20471;-90
2021/10/09 13:51:48;;;;;;;5.17;4.63;;;;;;;;;;5042509;28;20464;-89
2021/10/09 13:54:15;;;;;;;5.23;4.00;;;;;;;;;;5042135;28;20489;-88
2021/10/09 13:56:42;;;;;;;8.30;3.70;;;;;;;;;;5049719;28;20433;-89
2021/10/09 13:59:10;;;;;;;7.10;3.40;;;14.40;99.90;;;;;;5057559;28;20463;-88
2021/10/09 14:01:37;;;;;;;4.03;3.70;;;14.10;99.90;;;;;;5060293;28;20451;-88
2021/10/09 14:04:04;;;;;;;3.77;3.20;;;;;;;;;;5060242;28;20466;-89
2021/10/09 14:06:30;;;;;;;4.73;4.30;;;14.60;99.90;;;;;;5060036;28;20533;-90
2021/10/09 14:08:57;;;;;;;4.90;3.17;;;14.60;99.90;;;;;;5059816;28;20463;-89
2021/10/09 14:11:24;;;;;;;4.30;3.90;;;14.10;99.90;;;;;;5059668;28;20451;-88
2021/10/09 14:34:19;;;;;;;5.67;5.00;;;15.00;99.90;;;;;;4867184;28;20812;-89
2021/10/09 14:36:48;;;;;;;6.27;5.47;;;14.40;99.90;;;;;;5032233;28;20477;-89
2021/10/09 14:39:15;;;;;;;6.63;4.30;;;;;;;;;;5058287;28;20426;-89
2021/10/09 14:41:42;;;;;;;8.27;3.93;;;;;;;;;;5059556;28;20470;-88
2021/10/09 14:44:08;;;;;;;7.80;4.60;;;14.40;99.90;;;;;;5059201;28;20432;-90
2021/10/09 14:47:13;;;;;;;4.80;4.33;;;14.40;99.90;;;;;;5049476;28;20505;-89
2021/10/09 14:49:41;;;;;;;9.53;4.63;;;14.30;99.90;;;;;;5043103;28;20895;-89
2021/10/09 14:52:23;;;;;;;3.63;3.33;;;14.30;99.90;;;;;;5046396;28;20810;-89
2021/10/09 14:55:06;;;;;;;4.43;3.90;;;14.30;99.90;;;;;;5042630;28;20513;-89
2021/10/09 15:16:51;;;;;;;5.97;3.90;;;13.90;99.90;;;;;;5040380;28;20385;-89
2021/10/09 15:19:17;;;;;;;5.97;4.27;;;14.10;99.90;;;;;;5039410;28;20985;-90
2021/10/09 15:21:49;;;;;;;4.80;4.17;;;14.20;99.90;;;;;;5039435;28;20542;-89
2021/10/09 15:24:22;;;;;;;4.60;4.20;;;12.60;99.90;;;;;;5041077;28;20513;-89
2021/10/09 15:26:52;;;;;;;5.20;4.00;;;14.00;99.90;;;;;;5041489;28;20505;-89
2021/10/09 15:29:19;;;;;;;6.47;4.60;;;;;;;;;;5045149;28;20471;-89
2021/10/09 15:31:48;;;;;;;5.30;4.50;;;;;;;;;;5046204;28;20531;-89
2021/10/09 15:34:38;;;;;;;5.17;4.23;;;13.70;99.90;;;;;;5045035;28;20471;-90
2021/10/09 15:37:05;;;;;;;4.83;4.40;;;13.90;99.90;;;;;;5054546;28;20412;-89
2021/10/09 15:39:33;;;;;;;4.70;4.30;;;14.50;99.90;;;;;;5053509;28;20499;-88
2021/10/09 15:42:04;;;;;;;7.83;5.80;;;13.90;99.90;;;;;;5045153;28;20541;-88
2021/10/09 15:44:31;;;;;;;4.57;4.00;;;13.90;99.90;;;;;;5041197;28;20428;-89
2021/10/09 15:46:58;;;;;;;5.33;4.50;;;;;;;;;;5040278;28;20451;-88
2021/10/09 15:49:25;;;;;;;10.30;4.97;;;13.80;99.90;;;;;;5043537;28;20996;-88
2021/10/09 15:51:52;;;;;;;10.50;5.80;;;13.80;99.90;;;;;;5040717;28;20505;-88
2021/10/09 15:54:21;;;;;;;7.97;5.07;;;13.70;99.90;;;;;;5040748;28;20471;-89
2021/10/09 15:56:52;;;;;;;5.83;4.97;;;13.70;99.90;;;;;;5044043;28;20455;-89
2021/10/09 15:59:19;;;;;;;6.13;4.83;;;;;;;;;;5043446;28;20474;-88
2021/10/09 16:01:46;;;;;;;5.20;4.70;;;13.70;99.90;;;;;;5039310;28;20509;-87
2021/10/09 16:04:13;;;;;;;6.23;5.60;;;13.70;99.90;;;;;;5040205;28;20546;-86
2021/10/09 16:06:50;;;;;;;10.87;6.53;;;13.60;99.90;;;;;;5040503;28;20459;-89
2021/10/09 16:09:17;;;;;;;8.00;6.53;;;13.20;99.90;;;;;;5041522;28;20969;-88
2021/10/09 16:11:44;;;;;;;11.57;7.17;;;13.60;99.90;;;;;;5043523;28;20440;-87
2021/10/09 16:14:12;;;;;;;16.13;12.37;;;13.50;99.90;;;;;;5042340;28;20512;-87
2021/10/09 16:16:43;;;;;;;14.83;9.03;;;13.40;99.90;;;;;;5043003;28;20493;-88
2021/10/09 16:19:12;;;;;;;9.37;6.63;;;;;;;;;;5041308;28;20495;-88
2021/10/09 16:21:44;;;;;;;10.53;6.73;;;;;;;;;;5044101;28;20467;-89
2021/10/09 16:24:16;;;;;;;8.63;6.20;;;13.50;99.90;;;;;;5045189;28;20462;-90
2021/10/09 16:26:46;;;;;;;9.53;8.30;;;13.20;99.90;;;;;;5045534;28;20438;-89
2021/10/09 16:29:15;;;;;;;7.67;6.50;;;13.30;99.90;;;;;;5055241;28;20477;-90
2021/10/09 16:31:43;;;;;;;7.23;6.00;;;;;;;;;;5055513;28;20451;-89
2021/10/09 16:34:10;;;;;;;14.80;7.30;;;13.30;99.90;;;;;;5057054;28;20489;-88
2021/10/09 16:36:38;;;;;;;8.70;7.37;;;13.20;99.90;;;;;;5056722;28;20455;-88
2021/10/09 16:39:05;;;;;;;9.17;6.60;;;13.00;99.90;;;;;;5040614;28;20529;-88
2021/10/09 16:41:33;;;;;;;10.70;6.90;;;;;;;;;;5047011;28;20447;-89
2021/10/09 16:44:00;;;;;;;10.60;6.93;;;13.00;99.90;;;;;;5042823;28;20427;-88
2021/10/09 16:46:28;;;;;;;11.43;7.00;;;13.00;99.90;;;;;;5037034;28;20504;-88
2021/10/09 16:48:55;;;;;;;10.57;6.70;;;12.90;99.90;;;;;;5037573;28;20463;-88
2021/10/09 16:51:23;;;;;;;8.20;7.33;;;12.80;99.90;;;;;;5043765;28;20467;-88
2021/10/09 16:53:49;;;;;;;11.83;7.20;;;12.90;99.90;;;;;;5037609;28;20455;-88
2021/10/09 16:56:16;;;;;;;10.40;6.50;;;12.80;99.90;;;;;;5039661;28;20477;-88
2021/10/09 16:58:45;;;;;;;7.77;6.90;;;;;;;;;;5037545;28;20467;-88
2021/10/09 17:01:12;;;;;;;9.90;6.90;;;12.70;99.90;;;;;;5039309;28;20447;-87
2021/10/09 17:03:40;;;;;;;15.43;10.03;;;12.70;99.90;;;;;;5042452;28;20451;-87
2021/10/09 17:06:07;;;;;;;11.00;8.47;;;12.70;99.90;;;;;;5054451;28;20458;-87
2021/10/09 17:08:37;;;;;;;11.90;8.67;;;12.60;99.90;;;;;;5054430;28;20497;-87
2021/10/09 17:11:04;;;;;;;13.97;8.00;;;12.60;99.90;;;;;;5051758;28;20538;-87
2021/10/09 17:13:31;;;;;;;12.80;7.60;;;;;;;;;;5039195;28;20451;-87
2021/10/09 17:15:57;;;;;;;11.97;8.73;;;12.50;99.90;;;;;;5041458;28;20486;-87
2021/10/09 17:18:25;;;;;;;13.03;9.83;;;12.60;99.90;;;;;;5040120;28;20516;-88
2021/10/09 17:20:53;;;;;;;10.07;8.20;;;12.40;99.90;;;;;;5041126;28;20453;-89
2021/10/09 17:23:22;;;;;;;8.80;7.70;;;12.20;99.90;;;;;;5043307;28;20455;-88
2021/10/09 17:25:53;;;;;;;13.10;8.43;;;12.40;99.90;;;;;;5044610;28;20458;-88
2021/10/09 17:28:20;;;;;;;9.53;7.90;;;10.30;99.90;;;;;;5041904;28;20485;-88
2021/10/09 17:30:47;;;;;;;11.70;8.67;;;10.80;99.90;;;;;;5043506;28;20550;-89
2021/10/09 17:33:14;;;;;;;14.57;8.53;;;12.20;99.90;;;;;;5043185;28;20454;-88
2021/10/09 17:35:52;;;;;;;10.70;8.63;;;12.20;99.90;;;;;;5041911;28;20477;-88
2021/10/09 17:38:20;;;;;;;11.50;8.13;;;12.10;99.90;;;;;;5041766;28;20482;-88
2021/10/09 17:40:46;;;;;;;8.67;7.80;;;12.10;99.90;;;;;;5043339;28;20450;-88
2021/10/09 17:43:14;;;;;;;13.40;8.50;;;12.00;99.90;;;;;;5042800;28;20860;-88
2021/10/09 17:45:43;;;;;;;9.23;8.33;;;;;;;;;;5043080;28;20478;-89
2021/10/09 17:48:10;;;;;;;9.80;7.97;;;;;;;;;;5054411;28;20498;-90
2021/10/09 17:50:38;;;;;;;11.93;8.57;;;;;;;;;;5055146;28;20558;-87
2021/10/09 17:53:07;;;;;;;11.60;9.30;;;11.90;99.90;;;;;;5041769;28;20487;-88
2021/10/09 17:55:38;;;;;;;8.40;7.60;;;11.90;99.90;;;;;;5039563;28;20482;-88
2021/10/09 17:58:04;;;;;;;13.70;9.73;;;11.80;99.90;;;;;;5041855;28;20431;-88
2021/10/09 18:00:31;;;;;;;11.60;8.30;;;11.90;99.90;;;;;;5043773;28;20443;-88
2021/10/09 18:02:58;;;;;;;9.47;7.90;;;11.70;99.90;;;;;;5060034;28;20437;-87
2021/10/09 18:05:24;;;;;;;10.27;8.13;;;13.10;99.90;;;;;;5044431;28;20806;-88
2021/10/09 18:07:54;;;;;;;12.87;9.47;;;11.60;99.90;;;;;;5043913;28;20447;-89
2021/10/09 18:10:21;;;;;;;10.50;9.33;;;11.70;99.90;;;;;;5047576;28;20443;-88
2021/10/09 18:12:50;;;;;;;18.43;12.53;;;12.70;99.90;;;;;;5044168;28;20514;-88
2021/10/09 18:15:22;;;;;;;14.03;9.00;;;11.40;99.90;;;;;;5059338;28;20473;-91
2021/10/09 18:17:54;;;;;;;10.23;8.93;;;11.50;99.90;;;;;;5056397;28;20427;-90
2021/10/09 18:20:21;;;;;;;20.80;16.50;;;11.40;99.90;;;;;;5051464;28;20466;-89
2021/10/09 18:22:49;;;;;;;12.60;11.03;;;10.00;99.90;;;;;;5053899;28;20481;-89
2021/10/09 18:25:16;;;;;;;12.67;10.13;;;11.40;99.90;;;;;;5053351;28;20423;-89
2021/10/09 18:27:43;;;;;;;12.03;9.50;;;11.30;99.90;;;;;;5045798;28;20917;-90
2021/10/09 18:30:13;;;;;;;10.50;8.07;;;11.30;99.90;;;;;;5051048;28;20474;-90